ADDS METAR Data INFO
IDs: Format: Raw Decoded Include TAF

Data at: 0351 UTC 18 Oct 2017

KBFW 180342Z AUTO 00000KT 10SM CLR 05/03 A2984 RMK AO2
KBFW 180321Z AUTO 00000KT 10SM CLR 06/04 A2984 RMK AO2
KBFW 180254Z AUTO 00000KT 10SM CLR 06/04 A2985 RMK AO2
KBFW 180154Z AUTO 00000KT 10SM CLR 07/04 A2985 RMK AO2
KBFW 180056Z AUTO 00000KT 10SM CLR 09/05 A2986 RMK AO2
KBFW 180021Z AUTO 00000KT 10SM CLR 10/05 A2986 RMK AO2
KBFW 180008Z AUTO 00000KT 10SM CLR 11/06 A2986 RMK AO2
KBFW 172334Z AUTO 00000KT 10SM CLR 13/06 A2987 RMK AO2
KBFW 172329Z AUTO 00000KT 10SM CLR 14/05 A2986 RMK AO2
KBFW 172308Z AUTO 00000KT 10SM CLR 15/06 A2986 RMK AO2
KBFW 172234Z AUTO 19005KT 10SM CLR 18/04 A2986 RMK AO2
KBFW 172214Z AUTO 20006KT 10SM CLR 19/04 A2986 RMK AO2
KBFW 172153Z AUTO 19006KT 10SM CLR 19/04 A2987 RMK AO2
KBFW 172134Z AUTO 19009KT 10SM CLR 19/04 A2987 RMK AO2
KBFW 172129Z AUTO 19009KT 10SM CLR 19/04 A2987 RMK AO2
KBFW 172101Z AUTO 20013KT 10SM CLR 20/04 A2988 RMK AO2
KBFW 172034Z AUTO 20010G14KT 10SM CLR 20/04 A2988 RMK AO2
KBFW 172022Z AUTO 18012G18KT 10SM CLR 20/05 A2988 RMK AO2
KBFW 172008Z AUTO 19012G17KT 10SM CLR 20/05 A2988 RMK AO2
KBFW 171934Z AUTO 19011KT 10SM CLR 21/03 A2989 RMK AO2
KBFW 171928Z AUTO 19011G15KT 10SM CLR 21/03 A2990 RMK AO2
KBFW 171853Z AUTO 18005KT 10SM CLR 21/06 A2990 RMK AO2
KBFW 171842Z AUTO 21006KT 10SM CLR 21/02 A2991 RMK AO2
KBFW 171814Z AUTO 20007KT 10SM CLR 21/03 A2992 RMK AO2
KBFW 171701Z AUTO 20006KT 10SM CLR 17/04 A2994 RMK AO2
KBFW 171637Z AUTO 21003KT 10SM CLR 16/05 A2994 RMK AO2
KBFW 171609Z AUTO 00000KT 10SM CLR 14/06 A2995 RMK AO2
KBFW 171534Z AUTO 00000KT 10SM CLR 12/06 A2995 RMK AO2
KBFW 171449Z AUTO 00000KT 10SM CLR 11/05 A2995 RMK AO2
KBFW 171422Z AUTO 00000KT 10SM CLR 09/06 A2995 RMK AO2
KBFW 171357Z AUTO 00000KT 10SM CLR 08/05 A2995 RMK AO2
KBFW 171314Z AUTO 00000KT 10SM CLR 06/03 A2994 RMK AO2
KBFW 171122Z AUTO 00000KT 10SM CLR 09/03 A2990 RMK AO2
KBFW 171057Z AUTO 31003KT 10SM CLR 09/03 A2990 RMK AO2
KBFW 171017Z AUTO 30004KT 10SM CLR 09/04 A2989 RMK AO2
KBFW 170934Z AUTO 29004KT 10SM CLR 09/04 A2988 RMK AO2
KBFW 170837Z AUTO 29003KT 10SM CLR 09/04 A2987 RMK AO2
KBFW 170809Z AUTO 29003KT 10SM CLR 10/04 A2986 RMK AO2
KBFW 170749Z AUTO 30003KT 10SM CLR 10/04 A2986 RMK AO2
KBFW 170721Z AUTO 28004KT 10SM CLR 10/04 A2986 RMK AO2
KBFW 170657Z AUTO 28004KT 10SM CLR 11/04 A2986 RMK AO2
KBFW 170621Z AUTO 00000KT 10SM CLR 11/03 A2985 RMK AO2
KBFW 170609Z AUTO 00000KT 10SM CLR 11/04 A2985 RMK AO2
KBFW 170541Z AUTO 00000KT 10SM CLR 11/03 A2984 RMK AO2
KBFW 170514Z AUTO 00000KT 10SM CLR 09/03 A2984 RMK AO2
KBFW 170414Z AUTO 24003KT 10SM CLR 12/03 A2984 RMK AO2
KBFW 170322Z AUTO 22007G14KT 170V240 10SM CLR 12/03 A2984 RMK AO2
KBFW 170256Z AUTO 23006KT 10SM CLR 12/03 A2985 RMK AO2
KBFW 170217Z AUTO 23004KT 10SM CLR 11/03 A2987 RMK AO2
KBFW 170149Z AUTO 23004KT 10SM CLR 11/03 A2987 RMK AO2
KBFW 170122Z AUTO 22004KT 10SM CLR 11/03 A2987 RMK AO2
KBFW 170109Z AUTO 22004KT 10SM CLR 12/03 A2988 RMK AO2
KBFW 170034Z AUTO 22005KT 10SM CLR 12/03 A2988 RMK AO2
KBFW 162309Z AUTO 20007KT 10SM CLR 13/04 A2989 RMK AO2
KBFW 162234Z AUTO 20012G18KT 10SM CLR 13/03 A2991 RMK AO2
KBFW 162129Z AUTO 19011KT 10SM CLR 13/03 A2994 RMK AO2
KBFW 162056Z AUTO 20014G18KT 10SM CLR 14/03 A2995 RMK AO2
KBFW 162017Z AUTO 21012G17KT 10SM CLR 15/04 A2997 RMK AO2
KBFW 161949Z AUTO 21011KT 10SM CLR 15/04 A2998 RMK AO2
KBFW 161929Z AUTO 23008G15KT 200V280 10SM CLR 16/02 A2999 RMK AO2
KBFW 161854Z AUTO 19008KT 10SM CLR 14/04 A3002 RMK AO2
KBFW 161754Z AUTO 21012G16KT 10SM CLR 14/01 A3004 RMK AO2